Latest Weather Observations for Parkes Airport

IDN60801

Issued at 5:04 pm EST Saturday 18 April 2015 (issued every 30 minutes, with the page automatically refreshed every 10 minutes)

About weather observations | Map of weather stations | Latest weather observations for NSW | Other Formats
Station Details ID: 065068 Name: PARKES AIRPORT AWS Lat: -33.13 Lon: 148.24 Height: 323.3 m
Data from the previous 72 hours. | See also: Recent months at Parkes Airport
Date/Time
EST
Temp
°C
App
Temp
°C
Dew
Point
Rel
Hum
%
Delta-T
°C
Wind Press
QNH
hPa
Press
MSL
hPa
Rain
since 9 am
mm
Dir
 
Spd
km/h
Gust
km/h
Spd
kts
Gust
kts
18/05:00pm 18.8 19.4 16.9 89 1.2 NNE 9 13 5 7 1015.2 1014.5 9.0
18/04:30pm 19.1 19.1 17.1 88 1.2 WNW 13 19 7 10 1014.9 1014.2 8.8
18/04:00pm 19.1 17.5 17.4 90 1.1 WNW 22 32 12 17 1015.0 1014.3 8.8
18/03:33pm 18.8 17.1 17.1 90 1.0 N 22 46 12 25 1014.6 1013.9 8.2
18/03:30pm 19.3 18.7 17.6 90 1.1 NNW 17 24 9 13 1014.6 1013.9 7.4
18/03:00pm 19.1 15.4 16.1 83 1.8 NW 30 37 16 20 1014.5 1013.8 4.2
18/02:59pm 19.2 15.5 15.9 81 2.0 NNW 30 37 16 20 1014.5 1013.8 3.6
18/02:30pm 24.6 20.4 14.7 54 6.0 N 30 41 16 22 1014.2 1013.4 0.0
18/02:00pm 24.3 19.6 14.4 54 5.9 NNW 32 39 17 21 1014.7 1014.0 0.0
18/01:30pm 24.4 19.9 14.8 55 5.8 N 32 41 17 22 1014.9 1014.2 0.0
18/01:00pm 24.8 20.8 15.1 54 5.9 N 30 41 16 22 1015.3 1014.6 0.0
18/12:30pm 24.3 20.2 15.0 56 5.6 N 30 43 16 23 1015.7 1015.0 0.0
18/12:00pm 23.8 20.1 15.0 57 5.3 N 28 35 15 19 1016.7 1016.0 0.0
18/11:30am 24.0 19.0 15.0 57 5.5 N 35 46 19 25 1017.0 1016.4 0.0
18/11:00am 24.1 18.6 14.8 56 5.6 N 37 52 20 28 1017.5 1016.8 0.0
18/10:30am 23.9 18.8 15.7 60 5.0 N 37 50 20 27 1017.9 1017.2 0.0
18/10:00am 22.6 18.6 15.2 63 4.5 N 30 39 16 21 1018.4 1017.7 0.0
18/09:30am 22.2 17.7 14.8 63 4.4 N 32 43 17 23 1018.4 1017.7 0.0
18/09:00am 22.1 19.2 15.0 64 4.3 N 24 33 13 18 1018.5 1017.8 1.0
18/08:30am 22.0 19.8 14.9 64 4.3 N 20 28 11 15 1018.5 1017.8 1.0
18/08:00am 20.8 18.9 14.2 66 3.9 N 17 22 9 12 1018.6 1017.9 1.0
18/07:30am 20.6 16.9 14.0 66 3.9 N 26 33 14 18 1018.1 1017.4 1.0
18/07:00am 20.8 17.1 14.0 65 4.0 NNE 26 35 14 19 1017.4 1016.7 1.0
18/06:30am 20.6 16.9 13.8 65 4.0 NNE 26 35 14 19 1017.1 1016.5 1.0
18/06:00am 20.6 17.0 14.3 67 3.7 NNE 26 37 14 20 1017.0 1016.4 1.0
18/05:30am 19.8 16.7 14.6 72 3.1 NNE 24 30 13 16 1016.9 1016.3 1.0
18/05:00am 21.0 16.6 14.2 65 4.0 NNE 30 39 16 21 1016.8 1016.1 1.0
18/04:30am 20.1 17.1 14.9 72 3.1 NNE 24 30 13 16 1016.8 1016.1 1.0
18/04:00am 20.5 17.1 14.8 70 3.4 NNE 26 33 14 18 1016.7 1016.0 1.0
18/03:30am 20.2 17.3 15.0 72 3.1 NNE 24 32 13 17 1016.6 1015.9 1.0
18/03:00am 20.7 16.6 15.0 70 3.4 NNE 30 39 16 21 1016.6 1015.9 1.0
18/02:30am 20.7 16.7 15.3 71 3.2 NNE 30 37 16 20 1016.9 1016.3 1.0
18/02:00am 20.6 16.7 15.6 73 3.0 NNE 30 37 16 20 1017.4 1016.7 1.0
18/01:30am 20.5 16.7 15.7 74 2.9 NE 30 37 16 20 1017.6 1016.9 1.0
18/01:00am 21.1 17.6 15.4 70 3.4 NNE 28 39 15 21 1017.5 1016.8 1.0
18/12:30am 21.0 19.0 15.5 71 3.3 NNE 20 26 11 14 1017.6 1016.9 1.0
18/12:00am 21.1 19.1 15.6 71 3.3 NE 20 30 11 16 1017.7 1017.0 1.0
 
Date/Time
EST
Temp
°C
App
Temp
°C
Dew
Point
Rel
Hum
%
Delta-T
°C
Wind Press
QNH
hPa
Press
MSL
hPa
Rain
since 9 am
mm
Dir
 
Spd
km/h
Gust
km/h
Spd
kts
Gust
kts
17/11:30pm 21.5 19.2 15.6 69 3.6 NNE 22 30 12 16 1018.4 1017.7 1.0
17/11:00pm 21.7 19.3 15.5 68 3.7 NNE 22 28 12 15 1018.6 1017.9 1.0
17/10:30pm 22.4 18.8 15.3 64 4.3 NE 28 35 15 19 1018.7 1018.0 1.0
17/10:00pm 21.4 19.4 13.8 62 4.5 NNE 17 24 9 13 1018.9 1018.2 1.0
17/09:30pm 20.7 19.1 13.9 65 4.0 NNE 15 17 8 9 1018.7 1018.0 1.0
17/09:00pm 22.0 20.1 14.1 61 4.7 NNE 17 20 9 11 1018.5 1017.8 1.0
17/08:30pm 19.9 18.9 14.7 72 3.1 ENE 13 13 7 7 1018.5 1017.8 1.0
17/08:00pm 19.2 18.9 15.5 79 2.2 ENE 11 13 6 7 1018.5 1017.8 1.0
17/07:30pm 20.5 20.9 16.3 77 2.6 ENE 9 11 5 6 1018.4 1017.7 1.0
17/07:00pm 20.9 21.0 16.5 76 2.7 ENE 11 13 6 7 1018.3 1017.6 1.0
17/06:30pm 21.2 21.4 16.8 76 2.7 ENE 11 15 6 8 1018.1 1017.4 1.0
17/06:00pm 21.4 20.9 16.8 75 2.8 ENE 15 19 8 10 1018.1 1017.4 1.0
17/05:30pm 22.0 21.5 16.9 73 3.2 E 15 17 8 9 1018.1 1017.4 1.0
17/05:00pm 22.5 22.5 17.2 72 3.3 E 13 17 7 9 1018.3 1017.6 1.0
17/04:30pm 22.6 22.6 17.1 71 3.4 ESE 13 17 7 9 1018.4 1017.7 1.0
17/04:00pm 22.8 22.2 16.6 68 3.8 E 15 19 8 10 1018.5 1017.8 1.0
17/03:30pm 22.9 21.4 16.4 67 4.0 E 19 24 10 13 1018.6 1017.9 1.0
17/03:00pm 23.4 22.2 16.2 64 4.4 E 17 20 9 11 1019.1 1018.4 1.0
17/02:30pm 23.2 22.3 15.8 63 4.5 ESE 15 19 8 10 1019.7 1019.1 1.0
17/02:00pm 23.5 23.0 17.0 67 4.0 ESE 15 20 8 11 1020.2 1019.6 1.0
17/01:30pm 22.3 21.6 16.3 69 3.7 SE 15 19 8 10 1020.6 1019.9 1.0
17/01:00pm 21.6 21.4 16.6 73 3.1 ESE 13 20 7 11 1021.3 1020.6 1.0
17/12:30pm 20.9 19.9 16.5 76 2.7 ESE 17 22 9 12 1022.0 1021.3 1.0
17/12:00pm 20.2 18.6 16.4 79 2.3 E 20 26 11 14 1022.5 1021.9 1.0
17/11:30am 19.0 17.8 16.2 84 1.7 ESE 17 22 9 12 1023.0 1022.4 1.0
17/11:00am 18.1 16.8 15.7 86 1.4 ESE 17 24 9 13 1023.6 1023.0 1.0
17/10:30am 17.5 17.6 15.5 88 1.2 ENE 9 17 5 9 1024.2 1023.5 1.0
17/10:00am 16.7 14.8 15.1 90 0.9 ESE 19 22 10 12 1024.3 1023.6 1.0
17/09:30am 17.1 16.5 14.6 85 1.5 S 11 15 6 8 1025.1 1024.5 0.0
17/09:00am 16.7 18.1 14.3 86 1.4 CALM 0 6 0 3 1025.1 1024.5 1.2
17/08:30am 16.3 16.3 14.1 87 1.3 ESE 7 9 4 5 1025.1 1024.5 1.2
17/08:00am 15.8 16.5 13.3 85 1.4 SE 2 7 1 4 1025.0 1024.4 1.2
17/07:30am 15.9 13.9 12.8 82 1.7 SSW 15 20 8 11 1024.7 1024.0 1.0
17/07:00am 17.7 16.6 10.6 63 3.8 SSW 7 9 4 5 1023.9 1023.2 0.0
17/06:30am 17.6 15.2 10.2 62 4.0 S 13 15 7 8 1023.1 1022.5 0.0
17/06:00am 18.5 16.5 10.3 59 4.4 S 11 15 6 8 1022.9 1022.3 0.0
17/05:30am 18.7 16.4 10.3 58 4.6 SSE 13 17 7 9 1022.5 1021.9 0.0
17/05:00am 18.9 17.4 10.5 58 4.6 SE 9 13 5 7 1022.2 1021.5 0.0
17/04:30am 19.0 16.7 10.3 57 4.7 SSW 13 17 7 9 1022.2 1021.5 0.0
17/04:00am 19.7 17.2 10.9 57 4.9 S 15 19 8 10 1022.1 1021.4 0.0
17/03:30am 19.3 16.0 10.8 58 4.7 SSW 19 22 10 12 1021.8 1021.1 0.0
17/03:00am 18.5 16.5 12.7 69 3.3 SW 15 15 8 8 1021.9 1021.2 0.0
17/02:30am 18.5 20.2 16.1 86 1.4 ESE 2 9 1 5 1021.9 1021.2 0.0
17/02:00am 18.8 20.8 15.9 83 1.7 CALM 0 0 0 0 1022.3 1021.7 0.0
17/01:30am 19.0 21.0 15.9 82 1.9 CALM 0 9 0 5 1022.5 1021.9 0.0
17/01:00am 19.7 19.5 14.7 73 2.9 S 9 13 5 7 1022.7 1022.1 0.0
17/12:30am 19.8 21.8 15.9 78 2.4 CALM 0 7 0 4 1023.3 1022.7 0.0
17/12:00am 19.7 20.4 16.0 79 2.2 ESE 7 11 4 6 1023.2 1022.6 0.0
 
Date/Time
EST
Temp
°C
App
Temp
°C
Dew
Point
Rel
Hum
%
Delta-T
°C
Wind Press
QNH
hPa
Press
MSL
hPa
Rain
since 9 am
mm
Dir
 
Spd
km/h
Gust
km/h
Spd
kts
Gust
kts
16/11:30pm 20.5 20.5 15.3 72 3.1 WSW 9 11 5 6 1023.7 1023.1 0.0
16/11:00pm 21.6 20.1 15.2 67 3.8 WNW 17 26 9 14 1024.1 1023.4 0.0
16/10:30pm 21.0 20.2 15.1 69 3.5 NE 13 17 7 9 1023.5 1022.9 0.0
16/10:00pm 21.3 19.2 15.2 68 3.7 N 20 28 11 15 1023.4 1022.8 0.0
16/09:30pm 20.3 20.1 14.7 70 3.3 NE 9 11 5 6 1022.7 1022.1 0.0
16/09:00pm 21.4 21.7 13.3 60 4.7 ESE 4 7 2 4 1022.6 1022.0 0.0
16/08:30pm 21.8 22.5 13.4 59 4.9 E 2 9 1 5 1022.5 1021.9 0.0
16/08:00pm 22.0 21.8 13.6 59 4.9 ENE 7 13 4 7 1022.2 1021.5 0.0
16/07:30pm 22.0 21.5 12.8 56 5.3 SSE 7 11 4 6 1022.1 1021.4 0.0
16/07:00pm 22.9 21.8 13.1 54 5.7 S 11 13 6 7 1021.9 1021.2 0.0
16/06:30pm 23.2 22.2 13.4 54 5.8 S 11 13 6 7 1021.7 1021.0 0.0
16/06:00pm 24.3 23.5 12.9 49 6.7 S 9 15 5 8 1021.3 1020.6 0.0
16/05:30pm 26.2 25.2 12.3 42 8.1 SSW 9 13 5 7 1020.9 1020.2 0.0
16/05:00pm 28.1 26.3 12.0 36 9.4 W 13 17 7 9 1020.9 1020.2 0.0
16/04:30pm 28.7 26.2 12.2 36 9.7 W 17 20 9 11 1021.0 1020.3 0.0
16/04:00pm 29.5 27.8 12.4 35 10.1 W 13 20 7 11 1021.0 1020.3 0.0
16/03:30pm 29.3 28.3 12.3 35 10.1 WNW 9 15 5 8 1021.1 1020.4 0.0
16/03:00pm 29.6 28.0 12.9 35 10.0 W 13 20 7 11 1021.3 1020.6 0.0
16/02:30pm 29.1 27.5 12.9 37 9.7 W 13 19 7 10 1021.6 1020.9 0.0
16/02:00pm 29.0 26.5 12.4 36 9.8 W 17 26 9 14 1021.9 1021.2 0.0
16/01:30pm 28.7 26.7 12.6 37 9.6 NW 15 20 8 11 1022.2 1021.5 0.0
16/01:00pm 28.6 25.7 12.9 38 9.3 NW 20 28 11 15 1022.5 1021.9 0.0
16/12:30pm 27.9 25.3 13.1 40 8.8 NNW 19 30 10 16 1023.2 1022.6 0.0
16/12:00pm 28.1 25.1 13.6 41 8.7 NNW 22 33 12 18 1023.6 1023.0 0.0
16/11:30am 27.4 24.7 13.0 41 8.6 NNW 19 35 10 19 1024.1 1023.4 0.0
16/11:00am 26.8 23.5 13.9 45 7.7 N 24 32 13 17 1024.5 1023.8 0.0
16/10:30am 25.7 23.1 13.9 48 7.1 N 20 28 11 15 1024.9 1024.2 0.0
16/10:00am 24.1 20.9 13.0 50 6.5 NNW 22 30 12 16 1025.0 1024.4 0.0
16/09:30am 24.2 20.7 13.4 51 6.4 NNW 24 32 13 17 1025.3 1024.7 0.0
16/09:00am 23.3 20.1 13.2 53 5.9 NNW 22 28 12 15 1025.4 1024.8 0.0
16/08:30am 23.1 21.5 13.8 55 5.5 N 15 26 8 14 1025.3 1024.7 0.0
16/08:00am 21.2 20.6 13.4 61 4.5 N 9 13 5 7 1025.1 1024.5 0.0
16/07:30am 19.5 20.3 13.7 69 3.4 ENE 2 7 1 4 1024.7 1024.0 0.0
16/07:00am 16.3 17.1 12.7 79 2.0 CALM 0 0 0 0 1024.5 1023.8 0.0
16/06:30am 16.3 14.9 12.3 77 2.2 N 11 13 6 7 1024.2 1023.5 0.0
16/06:00am 17.0 15.6 12.3 74 2.6 NNE 11 15 6 8 1023.6 1023.0 0.0
16/05:30am 17.6 15.5 12.5 72 2.9 NNE 15 19 8 10 1023.4 1022.8 0.0
16/05:00am 17.8 17.0 12.9 73 2.8 NE 9 11 5 6 1023.1 1022.5 0.0
16/04:30am 16.8 14.9 11.9 73 2.7 NE 13 15 7 8 1022.8 1022.2 0.0
16/04:00am 18.6 17.3 12.4 67 3.5 NNE 11 13 6 7 1022.8 1022.2 0.0
16/03:30am 20.1 17.7 12.6 62 4.3 N 17 22 9 12 1022.5 1021.9 0.0
16/03:00am 21.1 17.9 13.0 60 4.7 NNE 22 30 12 16 1022.2 1021.5 0.0
16/02:30am 20.8 17.9 13.0 61 4.5 NNE 20 28 11 15 1022.3 1021.7 0.0
16/02:00am 20.8 18.1 13.0 61 4.5 NNE 19 22 10 12 1022.6 1022.0 0.0
16/01:30am 19.2 17.6 12.7 66 3.7 N 13 15 7 8 1023.1 1022.5 0.0
16/01:00am 19.6 17.9 12.6 64 4.0 NNE 13 17 7 9 1023.1 1022.5 0.0
16/12:30am 20.2 18.3 12.9 63 4.2 NNE 15 17 8 9 1022.9 1022.3 0.0
16/12:00am 19.8 17.7 12.3 62 4.2 N 15 17 8 9 1023.1 1022.5 0.0
 
Date/Time
EST
Temp
°C
App
Temp
°C
Dew
Point
Rel
Hum
%
Delta-T
°C
Wind Press
QNH
hPa
Press
MSL
hPa
Rain
since 9 am
mm
Dir
 
Spd
km/h
Gust
km/h
Spd
kts
Gust
kts
15/11:30pm 20.4 18.5 13.1 63 4.2 NNE 15 19 8 10 1023.0 1022.4 0.0
15/11:00pm 19.6 18.0 12.8 65 3.9 NNE 13 13 7 7 1023.3 1022.7 0.0
15/10:30pm 18.3 16.9 12.3 68 3.4 NE 11 13 6 7 1023.4 1022.8 0.0
15/10:00pm 18.0 17.0 12.2 69 3.2 NE 9 9 5 5 1023.4 1022.8 0.0
15/09:30pm 19.2 19.6 12.5 65 3.8 NNE 2 9 1 5 1023.1 1022.5 0.0
15/09:00pm 19.0 17.8 12.7 67 3.6 NNE 11 13 6 7 1022.6 1022.0 0.0
15/08:30pm 19.1 17.7 13.3 69 3.3 ENE 13 13 7 7 1022.7 1022.1 0.0
15/08:00pm 19.7 18.8 13.6 68 3.5 ENE 11 15 6 8 1022.5 1021.9 0.0
15/07:30pm 19.7 18.7 13.4 67 3.6 ENE 11 13 6 7 1022.1 1021.4 0.0
15/07:00pm 20.8 18.8 14.0 65 4.0 E 17 19 9 10 1021.9 1021.2 0.0
15/06:30pm 21.6 19.6 14.0 62 4.5 E 17 20 9 11 1021.9 1021.2 0.0
15/06:00pm 23.0 20.8 14.3 58 5.2 E 19 22 10 12 1021.8 1021.1 0.0
15/05:30pm 24.9 23.0 13.1 48 7.0 ESE 15 22 8 12 1021.3 1020.6 0.0

Other Formats:

Comma delimited format used in spreadsheet applications
http://www.bom.gov.au/fwo/IDN60801/IDN60801.95717.axf

JavaScript Object Notation format (JSON) in row-major order
http://www.bom.gov.au/fwo/IDN60801/IDN60801.95717.json